sensor_id;sensor_type;location;lat;lon;timestamp;P1;durP1;ratioP1;P2;durP2;ratioP2
14205;SDS011;7186;48.800;9.216;2023-05-14T00:00:20;12.33;;;9.60;;
14205;SDS011;7186;48.800;9.216;2023-05-14T00:02:46;13.10;;;9.80;;
14205;SDS011;7186;48.800;9.216;2023-05-14T00:05:11;10.77;;;8.97;;
14205;SDS011;7186;48.800;9.216;2023-05-14T00:07:36;13.73;;;9.63;;
14205;SDS011;7186;48.800;9.216;2023-05-14T00:10:01;11.13;;;9.40;;
14205;SDS011;7186;48.800;9.216;2023-05-14T00:12:26;12.83;;;10.63;;
14205;SDS011;7186;48.800;9.216;2023-05-14T00:14:52;12.53;;;9.93;;
14205;SDS011;7186;48.800;9.216;2023-05-14T00:17:17;12.27;;;9.83;;
14205;SDS011;7186;48.800;9.216;2023-05-14T00:19:43;12.87;;;10.23;;
14205;SDS011;7186;48.800;9.216;2023-05-14T00:22:08;11.07;;;9.17;;
14205;SDS011;7186;48.800;9.216;2023-05-14T00:24:34;12.17;;;9.93;;
14205;SDS011;7186;48.800;9.216;2023-05-14T00:26:59;11.60;;;9.37;;
14205;SDS011;7186;48.800;9.216;2023-05-14T00:29:24;11.70;;;9.77;;
14205;SDS011;7186;48.800;9.216;2023-05-14T00:31:50;13.63;;;10.00;;
14205;SDS011;7186;48.800;9.216;2023-05-14T00:34:15;13.00;;;9.43;;
14205;SDS011;7186;48.800;9.216;2023-05-14T00:36:40;12.60;;;10.13;;
14205;SDS011;7186;48.800;9.216;2023-05-14T00:39:05;11.23;;;9.97;;
14205;SDS011;7186;48.800;9.216;2023-05-14T00:41:31;11.83;;;9.73;;
14205;SDS011;7186;48.800;9.216;2023-05-14T00:43:56;13.50;;;10.37;;
14205;SDS011;7186;48.800;9.216;2023-05-14T00:46:21;13.53;;;10.20;;
14205;SDS011;7186;48.800;9.216;2023-05-14T00:48:46;12.63;;;10.27;;
14205;SDS011;7186;48.800;9.216;2023-05-14T00:51:11;12.27;;;10.93;;
14205;SDS011;7186;48.800;9.216;2023-05-14T00:53:37;13.60;;;10.47;;
14205;SDS011;7186;48.800;9.216;2023-05-14T00:56:02;12.37;;;10.20;;
14205;SDS011;7186;48.800;9.216;2023-05-14T00:58:27;12.07;;;10.47;;
14205;SDS011;7186;48.800;9.216;2023-05-14T01:00:53;12.37;;;10.07;;
14205;SDS011;7186;48.800;9.216;2023-05-14T01:03:18;11.23;;;9.63;;
14205;SDS011;7186;48.800;9.216;2023-05-14T01:05:50;11.37;;;10.03;;
14205;SDS011;7186;48.800;9.216;2023-05-14T01:08:30;11.23;;;10.03;;
14205;SDS011;7186;48.800;9.216;2023-05-14T01:11:01;13.87;;;10.17;;
14205;SDS011;7186;48.800;9.216;2023-05-14T01:16:19;11.93;;;10.20;;
14205;SDS011;7186;48.800;9.216;2023-05-14T01:18:45;13.40;;;10.30;;
14205;SDS011;7186;48.800;9.216;2023-05-14T01:23:55;13.07;;;10.90;;
14205;SDS011;7186;48.800;9.216;2023-05-14T01:26:20;12.97;;;10.60;;
14205;SDS011;7186;48.800;9.216;2023-05-14T01:28:45;13.00;;;11.07;;
14205;SDS011;7186;48.800;9.216;2023-05-14T01:31:14;12.80;;;10.33;;
14205;SDS011;7186;48.800;9.216;2023-05-14T01:33:42;13.43;;;10.50;;
14205;SDS011;7186;48.800;9.216;2023-05-14T01:36:08;14.10;;;11.73;;
14205;SDS011;7186;48.800;9.216;2023-05-14T01:38:33;13.50;;;11.00;;
14205;SDS011;7186;48.800;9.216;2023-05-14T01:40:59;14.73;;;11.30;;
14205;SDS011;7186;48.800;9.216;2023-05-14T01:43:25;13.13;;;10.97;;
14205;SDS011;7186;48.800;9.216;2023-05-14T01:45:50;12.50;;;10.50;;
14205;SDS011;7186;48.800;9.216;2023-05-14T01:48:16;11.47;;;10.00;;
14205;SDS011;7186;48.800;9.216;2023-05-14T01:50:41;13.67;;;11.73;;
14205;SDS011;7186;48.800;9.216;2023-05-14T01:53:06;14.90;;;11.53;;
14205;SDS011;7186;48.800;9.216;2023-05-14T01:55:32;15.20;;;12.03;;
14205;SDS011;7186;48.800;9.216;2023-05-14T01:57:57;14.70;;;11.67;;
14205;SDS011;7186;48.800;9.216;2023-05-14T02:00:22;15.27;;;11.50;;
14205;SDS011;7186;48.800;9.216;2023-05-14T02:02:50;16.13;;;12.03;;
14205;SDS011;7186;48.800;9.216;2023-05-14T02:05:15;15.10;;;11.53;;
14205;SDS011;7186;48.800;9.216;2023-05-14T02:07:40;14.13;;;11.53;;
14205;SDS011;7186;48.800;9.216;2023-05-14T02:10:06;15.03;;;11.87;;
14205;SDS011;7186;48.800;9.216;2023-05-14T02:12:31;14.27;;;12.13;;
14205;SDS011;7186;48.800;9.216;2023-05-14T02:14:56;13.43;;;11.33;;
14205;SDS011;7186;48.800;9.216;2023-05-14T02:17:22;12.60;;;11.13;;
14205;SDS011;7186;48.800;9.216;2023-05-14T02:19:47;15.10;;;11.10;;
14205;SDS011;7186;48.800;9.216;2023-05-14T02:22:13;13.87;;;11.67;;
14205;SDS011;7186;48.800;9.216;2023-05-14T02:24:38;16.23;;;10.93;;
14205;SDS011;7186;48.800;9.216;2023-05-14T02:27:03;14.30;;;10.60;;
14205;SDS011;7186;48.800;9.216;2023-05-14T02:29:28;14.17;;;11.47;;
14205;SDS011;7186;48.800;9.216;2023-05-14T02:31:54;15.67;;;10.67;;
14205;SDS011;7186;48.800;9.216;2023-05-14T02:34:19;12.63;;;11.30;;
14205;SDS011;7186;48.800;9.216;2023-05-14T02:36:45;13.23;;;11.20;;
14205;SDS011;7186;48.800;9.216;2023-05-14T02:39:10;14.53;;;11.27;;
14205;SDS011;7186;48.800;9.216;2023-05-14T02:41:35;11.93;;;10.13;;
14205;SDS011;7186;48.800;9.216;2023-05-14T02:44:00;14.07;;;11.27;;
14205;SDS011;7186;48.800;9.216;2023-05-14T02:46:26;12.97;;;11.20;;
14205;SDS011;7186;48.800;9.216;2023-05-14T02:48:51;13.27;;;11.20;;
14205;SDS011;7186;48.800;9.216;2023-05-14T02:51:18;13.00;;;11.17;;
14205;SDS011;7186;48.800;9.216;2023-05-14T02:53:43;13.33;;;10.83;;
14205;SDS011;7186;48.800;9.216;2023-05-14T02:56:08;13.63;;;10.43;;
14205;SDS011;7186;48.800;9.216;2023-05-14T02:58:33;12.80;;;9.43;;
14205;SDS011;7186;48.800;9.216;2023-05-14T03:00:59;10.80;;;9.07;;
14205;SDS011;7186;48.800;9.216;2023-05-14T03:03:24;10.90;;;9.50;;
14205;SDS011;7186;48.800;9.216;2023-05-14T03:05:49;10.37;;;8.87;;
14205;SDS011;7186;48.800;9.216;2023-05-14T03:08:15;11.90;;;10.03;;
14205;SDS011;7186;48.800;9.216;2023-05-14T03:10:40;11.27;;;9.57;;
14205;SDS011;7186;48.800;9.216;2023-05-14T03:13:05;11.50;;;9.23;;
14205;SDS011;7186;48.800;9.216;2023-05-14T03:15:30;13.83;;;8.83;;
14205;SDS011;7186;48.800;9.216;2023-05-14T03:17:55;13.47;;;9.13;;
14205;SDS011;7186;48.800;9.216;2023-05-14T03:20:22;12.27;;;8.57;;
14205;SDS011;7186;48.800;9.216;2023-05-14T03:22:48;11.27;;;9.50;;
14205;SDS011;7186;48.800;9.216;2023-05-14T03:25:13;11.93;;;9.43;;
14205;SDS011;7186;48.800;9.216;2023-05-14T03:27:38;10.90;;;9.53;;
14205;SDS011;7186;48.800;9.216;2023-05-14T03:30:03;10.03;;;8.93;;
14205;SDS011;7186;48.800;9.216;2023-05-14T03:32:29;11.37;;;9.13;;
14205;SDS011;7186;48.800;9.216;2023-05-14T03:34:54;11.73;;;8.73;;
14205;SDS011;7186;48.800;9.216;2023-05-14T03:37:19;11.33;;;8.93;;
14205;SDS011;7186;48.800;9.216;2023-05-14T03:39:45;9.57;;;8.00;;
14205;SDS011;7186;48.800;9.216;2023-05-14T03:42:10;9.50;;;8.17;;
14205;SDS011;7186;48.800;9.216;2023-05-14T03:44:35;11.50;;;8.10;;
14205;SDS011;7186;48.800;9.216;2023-05-14T03:47:00;10.07;;;8.03;;
14205;SDS011;7186;48.800;9.216;2023-05-14T03:49:25;8.73;;;7.47;;
14205;SDS011;7186;48.800;9.216;2023-05-14T03:51:51;11.57;;;8.57;;
14205;SDS011;7186;48.800;9.216;2023-05-14T03:54:16;11.73;;;8.27;;
14205;SDS011;7186;48.800;9.216;2023-05-14T03:56:41;10.50;;;7.80;;
14205;SDS011;7186;48.800;9.216;2023-05-14T03:59:06;10.60;;;8.37;;
14205;SDS011;7186;48.800;9.216;2023-05-14T04:01:32;8.70;;;7.73;;
14205;SDS011;7186;48.800;9.216;2023-05-14T04:03:57;9.33;;;7.43;;
14205;SDS011;7186;48.800;9.216;2023-05-14T04:06:22;11.30;;;8.23;;
14205;SDS011;7186;48.800;9.216;2023-05-14T04:08:47;11.23;;;8.17;;
14205;SDS011;7186;48.800;9.216;2023-05-14T04:11:14;10.90;;;8.03;;
14205;SDS011;7186;48.800;9.216;2023-05-14T04:13:39;14.07;;;8.13;;
14205;SDS011;7186;48.800;9.216;2023-05-14T04:16:05;10.23;;;8.00;;
14205;SDS011;7186;48.800;9.216;2023-05-14T04:18:30;10.23;;;8.03;;
14205;SDS011;7186;48.800;9.216;2023-05-14T04:20:58;10.80;;;7.43;;
14205;SDS011;7186;48.800;9.216;2023-05-14T04:23:24;9.57;;;7.90;;
14205;SDS011;7186;48.800;9.216;2023-05-14T04:25:49;9.37;;;7.20;;
14205;SDS011;7186;48.800;9.216;2023-05-14T04:28:14;9.77;;;7.93;;
14205;SDS011;7186;48.800;9.216;2023-05-14T04:30:39;10.27;;;7.80;;
14205;SDS011;7186;48.800;9.216;2023-05-14T04:33:05;10.33;;;7.73;;
14205;SDS011;7186;48.800;9.216;2023-05-14T04:35:30;10.27;;;7.87;;
14205;SDS011;7186;48.800;9.216;2023-05-14T04:37:55;11.13;;;8.50;;
14205;SDS011;7186;48.800;9.216;2023-05-14T04:40:20;10.00;;;8.40;;
14205;SDS011;7186;48.800;9.216;2023-05-14T04:42:46;11.30;;;8.67;;
14205;SDS011;7186;48.800;9.216;2023-05-14T04:45:11;10.87;;;8.43;;
14205;SDS011;7186;48.800;9.216;2023-05-14T04:47:37;12.10;;;8.97;;
14205;SDS011;7186;48.800;9.216;2023-05-14T04:50:02;9.90;;;8.20;;
14205;SDS011;7186;48.800;9.216;2023-05-14T04:52:28;14.27;;;8.27;;
14205;SDS011;7186;48.800;9.216;2023-05-14T04:54:55;10.20;;;7.87;;
14205;SDS011;7186;48.800;9.216;2023-05-14T04:57:20;13.37;;;8.83;;
14205;SDS011;7186;48.800;9.216;2023-05-14T04:59:46;10.50;;;8.13;;
14205;SDS011;7186;48.800;9.216;2023-05-14T05:02:11;9.80;;;8.17;;
14205;SDS011;7186;48.800;9.216;2023-05-14T05:04:37;10.37;;;7.90;;
14205;SDS011;7186;48.800;9.216;2023-05-14T05:07:02;10.23;;;7.87;;
14205;SDS011;7186;48.800;9.216;2023-05-14T05:09:30;11.33;;;8.67;;
14205;SDS011;7186;48.800;9.216;2023-05-14T05:11:56;10.93;;;8.60;;
14205;SDS011;7186;48.800;9.216;2023-05-14T05:14:21;10.67;;;8.43;;
14205;SDS011;7186;48.800;9.216;2023-05-14T05:16:46;10.60;;;8.87;;
14205;SDS011;7186;48.800;9.216;2023-05-14T05:19:11;10.07;;;8.13;;
14205;SDS011;7186;48.800;9.216;2023-05-14T05:21:37;10.03;;;8.00;;
14205;SDS011;7186;48.800;9.216;2023-05-14T05:24:04;10.73;;;8.87;;
14205;SDS011;7186;48.800;9.216;2023-05-14T05:26:29;12.60;;;8.83;;
14205;SDS011;7186;48.800;9.216;2023-05-14T05:28:55;12.33;;;8.93;;
14205;SDS011;7186;48.800;9.216;2023-05-14T05:31:20;11.93;;;9.07;;
14205;SDS011;7186;48.800;9.216;2023-05-14T05:33:46;12.53;;;9.07;;
14205;SDS011;7186;48.800;9.216;2023-05-14T05:36:11;12.40;;;8.90;;
14205;SDS011;7186;48.800;9.216;2023-05-14T05:38:36;12.33;;;8.80;;
14205;SDS011;7186;48.800;9.216;2023-05-14T05:41:02;11.10;;;8.80;;
14205;SDS011;7186;48.800;9.216;2023-05-14T05:43:27;21.40;;;9.10;;
14205;SDS011;7186;48.800;9.216;2023-05-14T05:45:52;12.17;;;9.20;;
14205;SDS011;7186;48.800;9.216;2023-05-14T05:48:19;10.80;;;8.27;;
14205;SDS011;7186;48.800;9.216;2023-05-14T05:50:46;14.87;;;9.43;;
14205;SDS011;7186;48.800;9.216;2023-05-14T05:53:15;10.20;;;8.80;;
14205;SDS011;7186;48.800;9.216;2023-05-14T05:55:40;10.30;;;8.30;;
14205;SDS011;7186;48.800;9.216;2023-05-14T05:58:06;10.60;;;8.80;;
14205;SDS011;7186;48.800;9.216;2023-05-14T06:00:31;10.63;;;8.80;;
14205;SDS011;7186;48.800;9.216;2023-05-14T06:02:57;11.03;;;8.70;;
14205;SDS011;7186;48.800;9.216;2023-05-14T06:05:22;11.80;;;9.30;;
14205;SDS011;7186;48.800;9.216;2023-05-14T06:07:47;10.90;;;8.43;;
14205;SDS011;7186;48.800;9.216;2023-05-14T06:10:12;12.00;;;9.37;;
14205;SDS011;7186;48.800;9.216;2023-05-14T06:12:38;10.87;;;8.27;;
14205;SDS011;7186;48.800;9.216;2023-05-14T06:15:04;11.27;;;8.77;;
14205;SDS011;7186;48.800;9.216;2023-05-14T06:17:29;11.17;;;8.80;;
14205;SDS011;7186;48.800;9.216;2023-05-14T06:19:55;10.00;;;8.57;;
14205;SDS011;7186;48.800;9.216;2023-05-14T06:22:20;11.23;;;9.47;;
14205;SDS011;7186;48.800;9.216;2023-05-14T06:24:46;11.27;;;8.77;;
14205;SDS011;7186;48.800;9.216;2023-05-14T06:27:11;10.60;;;8.23;;
14205;SDS011;7186;48.800;9.216;2023-05-14T06:29:36;10.80;;;8.27;;
14205;SDS011;7186;48.800;9.216;2023-05-14T06:32:02;12.17;;;9.07;;
14205;SDS011;7186;48.800;9.216;2023-05-14T06:34:27;13.70;;;9.47;;
14205;SDS011;7186;48.800;9.216;2023-05-14T06:36:53;12.00;;;9.00;;
14205;SDS011;7186;48.800;9.216;2023-05-14T06:39:18;13.20;;;8.83;;
14205;SDS011;7186;48.800;9.216;2023-05-14T06:41:43;10.77;;;9.17;;
14205;SDS011;7186;48.800;9.216;2023-05-14T06:44:08;11.43;;;8.43;;
14205;SDS011;7186;48.800;9.216;2023-05-14T06:46:34;12.73;;;9.20;;
14205;SDS011;7186;48.800;9.216;2023-05-14T06:49:03;11.70;;;9.00;;
14205;SDS011;7186;48.800;9.216;2023-05-14T06:51:28;11.97;;;8.90;;
14205;SDS011;7186;48.800;9.216;2023-05-14T06:53:54;13.60;;;9.30;;
14205;SDS011;7186;48.800;9.216;2023-05-14T06:56:19;12.20;;;8.70;;
14205;SDS011;7186;48.800;9.216;2023-05-14T06:58:45;10.83;;;8.97;;
14205;SDS011;7186;48.800;9.216;2023-05-14T07:01:10;10.63;;;8.83;;
14205;SDS011;7186;48.800;9.216;2023-05-14T07:03:36;10.80;;;8.30;;
14205;SDS011;7186;48.800;9.216;2023-05-14T07:06:01;12.13;;;9.00;;
14205;SDS011;7186;48.800;9.216;2023-05-14T07:08:26;11.60;;;9.07;;
14205;SDS011;7186;48.800;9.216;2023-05-14T07:10:51;14.20;;;10.17;;
14205;SDS011;7186;48.800;9.216;2023-05-14T07:13:16;13.17;;;9.73;;
14205;SDS011;7186;48.800;9.216;2023-05-14T07:15:42;12.43;;;9.57;;
14205;SDS011;7186;48.800;9.216;2023-05-14T07:18:08;12.47;;;8.97;;
14205;SDS011;7186;48.800;9.216;2023-05-14T07:20:33;14.17;;;9.40;;
14205;SDS011;7186;48.800;9.216;2023-05-14T07:22:58;12.17;;;9.03;;
14205;SDS011;7186;48.800;9.216;2023-05-14T07:25:24;12.23;;;9.60;;
14205;SDS011;7186;48.800;9.216;2023-05-14T07:27:49;11.67;;;9.47;;
14205;SDS011;7186;48.800;9.216;2023-05-14T07:30:14;13.30;;;10.13;;
14205;SDS011;7186;48.800;9.216;2023-05-14T07:32:40;11.93;;;9.13;;
14205;SDS011;7186;48.800;9.216;2023-05-14T07:35:05;12.70;;;9.27;;
14205;SDS011;7186;48.800;9.216;2023-05-14T07:37:30;12.37;;;8.87;;
14205;SDS011;7186;48.800;9.216;2023-05-14T07:39:56;11.97;;;10.20;;
14205;SDS011;7186;48.800;9.216;2023-05-14T07:42:21;13.97;;;9.57;;
14205;SDS011;7186;48.800;9.216;2023-05-14T07:44:46;14.97;;;9.90;;
14205;SDS011;7186;48.800;9.216;2023-05-14T07:47:11;14.60;;;9.87;;
14205;SDS011;7186;48.800;9.216;2023-05-14T07:49:36;12.90;;;9.80;;
14205;SDS011;7186;48.800;9.216;2023-05-14T07:52:02;12.00;;;9.50;;
14205;SDS011;7186;48.800;9.216;2023-05-14T07:54:27;13.30;;;10.40;;
14205;SDS011;7186;48.800;9.216;2023-05-14T07:56:52;14.77;;;10.10;;
14205;SDS011;7186;48.800;9.216;2023-05-14T07:59:17;13.07;;;10.73;;
14205;SDS011;7186;48.800;9.216;2023-05-14T08:01:43;12.53;;;10.50;;
14205;SDS011;7186;48.800;9.216;2023-05-14T08:04:08;10.63;;;9.40;;
14205;SDS011;7186;48.800;9.216;2023-05-14T08:06:35;13.80;;;10.17;;
14205;SDS011;7186;48.800;9.216;2023-05-14T08:09:01;13.03;;;10.43;;
14205;SDS011;7186;48.800;9.216;2023-05-14T08:11:26;12.67;;;10.60;;
14205;SDS011;7186;48.800;9.216;2023-05-14T08:13:51;12.73;;;10.63;;
14205;SDS011;7186;48.800;9.216;2023-05-14T08:16:16;14.60;;;10.20;;
14205;SDS011;7186;48.800;9.216;2023-05-14T08:18:42;12.63;;;9.93;;
14205;SDS011;7186;48.800;9.216;2023-05-14T08:21:07;11.77;;;9.97;;
14205;SDS011;7186;48.800;9.216;2023-05-14T08:23:32;11.77;;;9.77;;
14205;SDS011;7186;48.800;9.216;2023-05-14T08:25:57;12.83;;;10.33;;
14205;SDS011;7186;48.800;9.216;2023-05-14T08:28:23;11.57;;;9.40;;
14205;SDS011;7186;48.800;9.216;2023-05-14T08:30:49;11.97;;;9.57;;
14205;SDS011;7186;48.800;9.216;2023-05-14T08:33:14;11.57;;;9.40;;
14205;SDS011;7186;48.800;9.216;2023-05-14T08:35:39;13.97;;;10.70;;
14205;SDS011;7186;48.800;9.216;2023-05-14T08:38:04;14.00;;;10.20;;
14205;SDS011;7186;48.800;9.216;2023-05-14T08:40:30;10.57;;;9.43;;
14205;SDS011;7186;48.800;9.216;2023-05-14T08:42:55;15.17;;;9.63;;
14205;SDS011;7186;48.800;9.216;2023-05-14T08:45:23;13.20;;;10.70;;
14205;SDS011;7186;48.800;9.216;2023-05-14T08:47:50;14.90;;;10.40;;
14205;SDS011;7186;48.800;9.216;2023-05-14T08:50:15;12.87;;;9.57;;
14205;SDS011;7186;48.800;9.216;2023-05-14T08:52:41;13.20;;;9.90;;
14205;SDS011;7186;48.800;9.216;2023-05-14T08:55:06;13.30;;;10.07;;
14205;SDS011;7186;48.800;9.216;2023-05-14T08:57:32;16.13;;;9.97;;
14205;SDS011;7186;48.800;9.216;2023-05-14T08:59:57;11.87;;;9.67;;
14205;SDS011;7186;48.800;9.216;2023-05-14T09:02:29;12.80;;;10.47;;
14205;SDS011;7186;48.800;9.216;2023-05-14T09:04:56;12.27;;;9.37;;
14205;SDS011;7186;48.800;9.216;2023-05-14T09:07:21;12.73;;;9.90;;
14205;SDS011;7186;48.800;9.216;2023-05-14T09:09:47;13.70;;;9.80;;
14205;SDS011;7186;48.800;9.216;2023-05-14T09:12:13;14.20;;;9.83;;
14205;SDS011;7186;48.800;9.216;2023-05-14T09:14:38;10.73;;;9.07;;
14205;SDS011;7186;48.800;9.216;2023-05-14T09:17:03;10.77;;;9.33;;
14205;SDS011;7186;48.800;9.216;2023-05-14T09:19:28;11.27;;;8.97;;
14205;SDS011;7186;48.800;9.216;2023-05-14T09:21:55;11.30;;;9.17;;
14205;SDS011;7186;48.800;9.216;2023-05-14T09:24:22;12.70;;;10.40;;
14205;SDS011;7186;48.800;9.216;2023-05-14T09:26:49;13.03;;;9.97;;
14205;SDS011;7186;48.800;9.216;2023-05-14T09:29:14;12.20;;;9.93;;
14205;SDS011;7186;48.800;9.216;2023-05-14T09:31:39;12.87;;;10.13;;
14205;SDS011;7186;48.800;9.216;2023-05-14T09:34:05;16.70;;;12.63;;
14205;SDS011;7186;48.800;9.216;2023-05-14T09:36:30;16.73;;;11.13;;
14205;SDS011;7186;48.800;9.216;2023-05-14T09:38:58;15.93;;;11.80;;
14205;SDS011;7186;48.800;9.216;2023-05-14T09:41:24;11.73;;;10.27;;
14205;SDS011;7186;48.800;9.216;2023-05-14T09:43:49;15.03;;;9.80;;
14205;SDS011;7186;48.800;9.216;2023-05-14T09:46:15;11.90;;;9.30;;
14205;SDS011;7186;48.800;9.216;2023-05-14T09:48:40;10.77;;;9.27;;
14205;SDS011;7186;48.800;9.216;2023-05-14T09:51:05;12.07;;;8.60;;
14205;SDS011;7186;48.800;9.216;2023-05-14T09:53:31;10.50;;;8.43;;
14205;SDS011;7186;48.800;9.216;2023-05-14T09:55:56;10.53;;;8.13;;
14205;SDS011;7186;48.800;9.216;2023-05-14T09:58:22;10.30;;;8.03;;
14205;SDS011;7186;48.800;9.216;2023-05-14T10:00:47;13.40;;;8.33;;
14205;SDS011;7186;48.800;9.216;2023-05-14T10:03:13;9.30;;;7.60;;
14205;SDS011;7186;48.800;9.216;2023-05-14T10:05:39;8.73;;;7.70;;
14205;SDS011;7186;48.800;9.216;2023-05-14T10:08:26;11.33;;;8.67;;
14205;SDS011;7186;48.800;9.216;2023-05-14T10:10:51;12.20;;;8.77;;
14205;SDS011;7186;48.800;9.216;2023-05-14T10:13:19;9.43;;;8.43;;
14205;SDS011;7186;48.800;9.216;2023-05-14T10:15:51;11.33;;;7.60;;
14205;SDS011;7186;48.800;9.216;2023-05-14T10:18:22;10.93;;;8.23;;
14205;SDS011;7186;48.800;9.216;2023-05-14T10:21:10;9.67;;;8.17;;
14205;SDS011;7186;48.800;9.216;2023-05-14T10:23:35;10.73;;;8.47;;
14205;SDS011;7186;48.800;9.216;2023-05-14T10:26:01;9.50;;;8.20;;
14205;SDS011;7186;48.800;9.216;2023-05-14T10:28:27;10.17;;;8.30;;
14205;SDS011;7186;48.800;9.216;2023-05-14T10:30:53;10.83;;;8.03;;
14205;SDS011;7186;48.800;9.216;2023-05-14T10:33:18;10.47;;;8.10;;
14205;SDS011;7186;48.800;9.216;2023-05-14T10:38:15;9.87;;;7.70;;
14205;SDS011;7186;48.800;9.216;2023-05-14T10:40:40;9.03;;;7.63;;
14205;SDS011;7186;48.800;9.216;2023-05-14T10:43:06;12.23;;;7.83;;
14205;SDS011;7186;48.800;9.216;2023-05-14T10:45:32;11.50;;;7.17;;
14205;SDS011;7186;48.800;9.216;2023-05-14T10:47:58;10.77;;;6.90;;
14205;SDS011;7186;48.800;9.216;2023-05-14T10:50:24;7.43;;;6.60;;
14205;SDS011;7186;48.800;9.216;2023-05-14T10:52:50;11.57;;;7.73;;
14205;SDS011;7186;48.800;9.216;2023-05-14T10:55:16;9.13;;;7.77;;
14205;SDS011;7186;48.800;9.216;2023-05-14T10:57:41;10.03;;;8.27;;
14205;SDS011;7186;48.800;9.216;2023-05-14T11:00:07;9.53;;;8.10;;
14205;SDS011;7186;48.800;9.216;2023-05-14T11:02:34;11.00;;;8.13;;
14205;SDS011;7186;48.800;9.216;2023-05-14T11:05:04;12.20;;;8.80;;
14205;SDS011;7186;48.800;9.216;2023-05-14T11:07:33;9.37;;;8.37;;
14205;SDS011;7186;48.800;9.216;2023-05-14T11:10:00;11.30;;;8.73;;
14205;SDS011;7186;48.800;9.216;2023-05-14T11:12:26;9.63;;;8.10;;
14205;SDS011;7186;48.800;9.216;2023-05-14T11:14:52;8.87;;;7.53;;
14205;SDS011;7186;48.800;9.216;2023-05-14T11:17:18;10.47;;;7.50;;
14205;SDS011;7186;48.800;9.216;2023-05-14T11:19:43;9.03;;;7.30;;
14205;SDS011;7186;48.800;9.216;2023-05-14T11:22:10;10.53;;;7.77;;
14205;SDS011;7186;48.800;9.216;2023-05-14T11:24:37;9.50;;;7.60;;
14205;SDS011;7186;48.800;9.216;2023-05-14T11:27:03;9.70;;;7.67;;
14205;SDS011;7186;48.800;9.216;2023-05-14T11:29:28;8.97;;;7.43;;
14205;SDS011;7186;48.800;9.216;2023-05-14T11:31:53;8.80;;;6.73;;
14205;SDS011;7186;48.800;9.216;2023-05-14T11:34:19;9.50;;;7.30;;
14205;SDS011;7186;48.800;9.216;2023-05-14T11:36:44;9.43;;;6.80;;
14205;SDS011;7186;48.800;9.216;2023-05-14T11:39:16;8.70;;;7.40;;
14205;SDS011;7186;48.800;9.216;2023-05-14T11:41:44;8.00;;;7.17;;
14205;SDS011;7186;48.800;9.216;2023-05-14T11:44:10;8.50;;;6.57;;
14205;SDS011;7186;48.800;9.216;2023-05-14T11:46:35;7.97;;;7.03;;
14205;SDS011;7186;48.800;9.216;2023-05-14T11:49:04;8.80;;;6.43;;
14205;SDS011;7186;48.800;9.216;2023-05-14T11:51:30;11.53;;;10.07;;
14205;SDS011;7186;48.800;9.216;2023-05-14T11:53:55;29.07;;;21.03;;
14205;SDS011;7186;48.800;9.216;2023-05-14T11:56:22;13.03;;;10.40;;
14205;SDS011;7186;48.800;9.216;2023-05-14T11:58:48;15.53;;;12.23;;
14205;SDS011;7186;48.800;9.216;2023-05-14T12:01:13;11.57;;;7.67;;
14205;SDS011;7186;48.800;9.216;2023-05-14T12:03:40;7.97;;;6.90;;
14205;SDS011;7186;48.800;9.216;2023-05-14T12:06:06;8.67;;;6.60;;
14205;SDS011;7186;48.800;9.216;2023-05-14T12:08:33;7.37;;;6.17;;
14205;SDS011;7186;48.800;9.216;2023-05-14T12:10:59;7.13;;;5.87;;
14205;SDS011;7186;48.800;9.216;2023-05-14T12:13:25;7.40;;;5.83;;
14205;SDS011;7186;48.800;9.216;2023-05-14T12:15:54;8.07;;;5.63;;
14205;SDS011;7186;48.800;9.216;2023-05-14T12:18:20;7.57;;;6.27;;
14205;SDS011;7186;48.800;9.216;2023-05-14T12:20:46;7.27;;;5.83;;
14205;SDS011;7186;48.800;9.216;2023-05-14T12:23:12;6.53;;;5.80;;
14205;SDS011;7186;48.800;9.216;2023-05-14T12:25:37;6.13;;;5.23;;
14205;SDS011;7186;48.800;9.216;2023-05-14T12:28:12;6.50;;;5.80;;
14205;SDS011;7186;48.800;9.216;2023-05-14T12:30:38;7.03;;;5.97;;
14205;SDS011;7186;48.800;9.216;2023-05-14T12:33:03;6.70;;;5.57;;
14205;SDS011;7186;48.800;9.216;2023-05-14T12:35:28;8.33;;;5.97;;
14205;SDS011;7186;48.800;9.216;2023-05-14T12:37:54;5.53;;;4.83;;
14205;SDS011;7186;48.800;9.216;2023-05-14T12:40:19;5.60;;;4.80;;
14205;SDS011;7186;48.800;9.216;2023-05-14T12:42:45;6.07;;;4.73;;
14205;SDS011;7186;48.800;9.216;2023-05-14T12:45:10;6.17;;;5.57;;
14205;SDS011;7186;48.800;9.216;2023-05-14T12:47:35;5.97;;;5.20;;
14205;SDS011;7186;48.800;9.216;2023-05-14T12:50:01;6.10;;;5.50;;
14205;SDS011;7186;48.800;9.216;2023-05-14T12:52:26;6.50;;;5.67;;
14205;SDS011;7186;48.800;9.216;2023-05-14T12:54:51;7.70;;;5.23;;
14205;SDS011;7186;48.800;9.216;2023-05-14T12:57:16;6.43;;;5.70;;
14205;SDS011;7186;48.800;9.216;2023-05-14T12:59:41;5.63;;;4.73;;
14205;SDS011;7186;48.800;9.216;2023-05-14T13:02:07;5.90;;;5.30;;
14205;SDS011;7186;48.800;9.216;2023-05-14T13:04:32;5.23;;;4.67;;
14205;SDS011;7186;48.800;9.216;2023-05-14T13:06:57;5.23;;;4.73;;
14205;SDS011;7186;48.800;9.216;2023-05-14T13:09:23;5.30;;;4.70;;
14205;SDS011;7186;48.800;9.216;2023-05-14T13:11:48;5.37;;;4.53;;
14205;SDS011;7186;48.800;9.216;2023-05-14T13:14:13;5.47;;;4.43;;
14205;SDS011;7186;48.800;9.216;2023-05-14T13:16:39;4.90;;;4.40;;
14205;SDS011;7186;48.800;9.216;2023-05-14T13:19:04;5.00;;;4.43;;
14205;SDS011;7186;48.800;9.216;2023-05-14T13:21:30;6.03;;;4.97;;
14205;SDS011;7186;48.800;9.216;2023-05-14T13:23:55;5.33;;;4.83;;
14205;SDS011;7186;48.800;9.216;2023-05-14T13:26:23;6.50;;;4.70;;
14205;SDS011;7186;48.800;9.216;2023-05-14T13:28:50;6.63;;;5.30;;
14205;SDS011;7186;48.800;9.216;2023-05-14T13:31:15;8.20;;;5.80;;
14205;SDS011;7186;48.800;9.216;2023-05-14T13:33:41;5.70;;;5.17;;
14205;SDS011;7186;48.800;9.216;2023-05-14T13:36:07;6.57;;;5.13;;
14205;SDS011;7186;48.800;9.216;2023-05-14T13:38:32;5.53;;;4.80;;
14205;SDS011;7186;48.800;9.216;2023-05-14T13:40:58;5.30;;;4.80;;
14205;SDS011;7186;48.800;9.216;2023-05-14T13:43:26;5.80;;;5.20;;
14205;SDS011;7186;48.800;9.216;2023-05-14T13:45:52;6.13;;;5.30;;
14205;SDS011;7186;48.800;9.216;2023-05-14T13:48:17;6.50;;;4.97;;
14205;SDS011;7186;48.800;9.216;2023-05-14T13:50:42;5.30;;;4.80;;
14205;SDS011;7186;48.800;9.216;2023-05-14T13:53:08;5.50;;;5.00;;
14205;SDS011;7186;48.800;9.216;2023-05-14T13:55:33;5.90;;;5.30;;
14205;SDS011;7186;48.800;9.216;2023-05-14T13:57:59;6.23;;;5.60;;
14205;SDS011;7186;48.800;9.216;2023-05-14T14:00:25;6.97;;;5.03;;
14205;SDS011;7186;48.800;9.216;2023-05-14T14:02:51;5.87;;;4.63;;
14205;SDS011;7186;48.800;9.216;2023-05-14T14:05:16;7.33;;;4.47;;
14205;SDS011;7186;48.800;9.216;2023-05-14T14:07:41;5.77;;;5.17;;
14205;SDS011;7186;48.800;9.216;2023-05-14T14:10:07;6.07;;;4.77;;
14205;SDS011;7186;48.800;9.216;2023-05-14T14:12:32;6.00;;;4.90;;
14205;SDS011;7186;48.800;9.216;2023-05-14T14:14:57;7.50;;;5.17;;
14205;SDS011;7186;48.800;9.216;2023-05-14T14:17:23;6.67;;;5.17;;
14205;SDS011;7186;48.800;9.216;2023-05-14T14:19:48;4.97;;;4.47;;
14205;SDS011;7186;48.800;9.216;2023-05-14T14:22:13;4.80;;;4.30;;
14205;SDS011;7186;48.800;9.216;2023-05-14T14:24:41;4.60;;;4.10;;
14205;SDS011;7186;48.800;9.216;2023-05-14T14:27:06;5.07;;;4.50;;
14205;SDS011;7186;48.800;9.216;2023-05-14T14:29:32;4.93;;;4.20;;
14205;SDS011;7186;48.800;9.216;2023-05-14T14:31:58;5.23;;;4.20;;
14205;SDS011;7186;48.800;9.216;2023-05-14T14:34:23;5.83;;;3.87;;
14205;SDS011;7186;48.800;9.216;2023-05-14T14:36:48;4.80;;;3.60;;
14205;SDS011;7186;48.800;9.216;2023-05-14T14:39:14;3.70;;;3.40;;
14205;SDS011;7186;48.800;9.216;2023-05-14T14:41:39;4.20;;;3.80;;
14205;SDS011;7186;48.800;9.216;2023-05-14T14:44:04;4.13;;;3.73;;
14205;SDS011;7186;48.800;9.216;2023-05-14T14:46:30;4.17;;;3.77;;